createdAt,value
2023-05-19T00:00:06.541Z,59.00
2023-05-19T00:02:03.913Z,58.80
2023-05-19T00:03:06.339Z,59.20
2023-05-19T00:04:03.928Z,58.90
2023-05-19T00:06:04.175Z,58.90
2023-05-19T00:07:03.933Z,60.00
2023-05-19T00:08:03.531Z,58.90
2023-05-19T00:09:06.655Z,59.40
2023-05-19T00:10:06.975Z,59.30
2023-05-19T00:12:04.037Z,60.10
2023-05-19T00:14:04.391Z,59.40
2023-05-19T00:15:06.512Z,59.20
2023-05-19T00:16:06.697Z,59.90
2023-05-19T00:18:06.651Z,59.70
2023-05-19T00:21:04.382Z,60.00
2023-05-19T00:22:03.892Z,60.50
2023-05-19T00:23:05.988Z,59.80
2023-05-19T00:25:06.478Z,59.60
2023-05-19T00:27:03.556Z,60.70
2023-05-19T00:28:06.657Z,60.60
2023-05-19T00:30:06.133Z,60.80
2023-05-19T00:32:04.146Z,60.30
2023-05-19T00:33:03.703Z,60.50
2023-05-19T00:34:10.208Z,59.90
2023-05-19T00:35:06.197Z,60.50
2023-05-19T00:37:04.153Z,60.80
2023-05-19T00:38:06.227Z,60.60
2023-05-19T00:40:04.270Z,60.60
2023-05-19T00:42:03.465Z,61.20
2023-05-19T00:43:06.582Z,61.00
2023-05-19T00:44:04.088Z,60.60
2023-05-19T00:45:06.260Z,61.10
2023-05-19T00:47:07.097Z,61.00
2023-05-19T00:48:06.423Z,60.50
2023-05-19T00:49:03.987Z,60.10
2023-05-19T00:51:04.420Z,54.60
2023-05-19T00:52:04.297Z,61.40
2023-05-19T00:53:03.836Z,60.40
2023-05-19T00:54:04.392Z,60.00
2023-05-19T00:55:06.502Z,61.40
2023-05-19T00:56:06.595Z,60.60
2023-05-19T00:57:06.601Z,60.20
2023-05-19T00:59:03.511Z,60.30
2023-05-19T01:00:06.558Z,60.40
2023-05-19T01:01:05.477Z,59.70
2023-05-19T01:02:04.038Z,60.20
2023-05-19T01:04:06.960Z,61.00
2023-05-19T01:05:06.028Z,61.20
2023-05-19T01:06:03.523Z,60.40
2023-05-19T01:07:04.111Z,61.20
2023-05-19T01:08:04.045Z,60.90
2023-05-19T01:09:04.443Z,60.50
2023-05-19T01:10:06.593Z,60.80
2023-05-19T01:11:06.628Z,60.40
2023-05-19T01:14:06.769Z,61.20
2023-05-19T01:15:04.274Z,60.60
2023-05-19T01:16:11.573Z,60.40
2023-05-19T01:18:03.854Z,60.90
2023-05-19T01:19:03.462Z,61.10
2023-05-19T01:20:06.599Z,61.40
2023-05-19T01:21:06.729Z,61.70
2023-05-19T01:23:03.826Z,61.20
2023-05-19T01:24:04.422Z,61.40
2023-05-19T01:25:06.494Z,61.60
2023-05-19T01:26:06.495Z,61.10
2023-05-19T01:27:06.465Z,61.80
2023-05-19T01:29:04.421Z,61.40
2023-05-19T01:30:06.577Z,63.20
2023-05-19T01:31:06.633Z,63.40
2023-05-19T01:32:06.918Z,62.90
2023-05-19T01:34:04.154Z,63.00
2023-05-19T01:35:03.686Z,63.50
2023-05-19T01:36:06.771Z,63.30
2023-05-19T01:37:11.794Z,62.00
2023-05-19T01:39:06.257Z,63.60
2023-05-19T01:41:04.397Z,62.00
2023-05-19T01:43:06.164Z,62.10
2023-05-19T01:45:04.277Z,62.60
2023-05-19T01:48:10.972Z,62.50
2023-05-19T01:49:06.211Z,61.20
2023-05-19T01:51:04.302Z,62.40
2023-05-19T01:52:03.792Z,61.20
2023-05-19T01:53:10.299Z,61.60
2023-05-19T01:55:04.434Z,61.60
2023-05-19T01:56:06.556Z,61.70
2023-05-19T01:57:06.541Z,61.40
2023-05-19T01:59:06.125Z,62.90
2023-05-19T02:00:03.641Z,62.70
2023-05-19T02:01:06.817Z,62.50
2023-05-19T02:02:06.842Z,62.20
2023-05-19T02:03:04.505Z,62.00
2023-05-19T02:04:04.093Z,59.30
2023-05-19T02:05:03.625Z,63.20
2023-05-19T02:06:04.240Z,62.70
2023-05-19T02:07:06.342Z,62.90
2023-05-19T02:09:06.058Z,60.20
2023-05-19T02:10:06.034Z,63.20
2023-05-19T02:12:04.010Z,63.60
2023-05-19T02:13:06.218Z,62.70
2023-05-19T02:14:03.689Z,62.50
2023-05-19T02:15:04.302Z,63.50
2023-05-19T02:16:06.609Z,62.80
2023-05-19T02:17:10.312Z,63.40
2023-05-19T02:19:03.906Z,63.30
2023-05-19T02:20:06.009Z,65.00
2023-05-19T02:21:06.976Z,65.00
2023-05-19T02:22:06.068Z,65.30
2023-05-19T02:23:06.096Z,65.00
2023-05-19T02:25:04.110Z,64.70
2023-05-19T02:26:06.219Z,64.30
2023-05-19T02:27:03.764Z,64.10
2023-05-19T02:28:06.899Z,63.90
2023-05-19T02:30:03.931Z,64.20
2023-05-19T02:31:03.454Z,63.80
2023-05-19T02:32:06.643Z,63.90
2023-05-19T02:33:06.982Z,65.30
2023-05-19T02:34:06.040Z,65.20
2023-05-19T02:35:05.995Z,63.80
2023-05-19T02:37:06.650Z,64.90
2023-05-19T02:38:06.664Z,66.50
2023-05-19T02:40:03.755Z,67.70
2023-05-19T02:41:04.366Z,67.20
2023-05-19T02:42:03.973Z,64.90
2023-05-19T02:43:03.493Z,65.60
2023-05-19T02:44:04.062Z,64.00
2023-05-19T02:45:06.124Z,65.80
2023-05-19T02:46:03.657Z,63.40
2023-05-19T02:47:04.253Z,66.10
2023-05-19T02:48:06.452Z,66.90
2023-05-19T02:49:06.460Z,66.00
2023-05-19T02:50:06.441Z,65.50
2023-05-19T02:51:03.914Z,65.50
2023-05-19T02:52:03.533Z,65.60
2023-05-19T02:53:04.157Z,63.30
2023-05-19T02:54:06.286Z,65.90
2023-05-19T02:56:04.236Z,67.10
2023-05-19T02:57:06.285Z,64.80
2023-05-19T02:59:04.321Z,63.80
2023-05-19T03:01:03.599Z,68.00
2023-05-19T03:02:04.419Z,66.70
2023-05-19T03:03:06.689Z,65.60
2023-05-19T03:06:04.327Z,65.80
2023-05-19T03:08:04.515Z,65.30
2023-05-19T03:09:06.672Z,66.70
2023-05-19T03:10:04.177Z,65.80
2023-05-19T03:11:03.810Z,66.50
2023-05-19T03:12:04.420Z,65.80
2023-05-19T03:14:03.587Z,68.00
2023-05-19T03:15:06.649Z,65.10
2023-05-19T03:16:06.733Z,65.60
2023-05-19T03:17:04.313Z,65.30
2023-05-19T03:18:03.992Z,65.90
2023-05-19T03:19:06.266Z,66.20
2023-05-19T03:20:03.906Z,65.50
2023-05-19T03:21:06.034Z,64.80
2023-05-19T03:22:03.711Z,64.50
2023-05-19T03:23:06.979Z,65.20
2023-05-19T03:25:04.160Z,66.40
2023-05-19T03:26:06.190Z,64.90
2023-05-19T03:27:06.235Z,66.30
2023-05-19T03:28:06.181Z,65.90
2023-05-19T03:29:10.164Z,65.50
2023-05-19T03:31:04.470Z,66.00
2023-05-19T03:32:07.030Z,65.10
2023-05-19T03:34:06.854Z,65.30
2023-05-19T03:35:07.005Z,64.10
2023-05-19T03:37:06.735Z,65.30
2023-05-19T03:38:06.814Z,66.10
2023-05-19T03:39:06.107Z,67.60
2023-05-19T03:40:03.679Z,67.20
2023-05-19T03:41:04.327Z,65.60
2023-05-19T03:42:06.461Z,63.70
2023-05-19T03:43:06.472Z,62.90
2023-05-19T03:44:06.430Z,64.40
2023-05-19T03:46:06.630Z,65.30
2023-05-19T03:47:04.158Z,64.60
2023-05-19T03:48:06.440Z,64.90
2023-05-19T03:49:03.977Z,64.20
2023-05-19T03:51:06.742Z,64.10
2023-05-19T03:53:04.317Z,64.10
2023-05-19T03:54:03.996Z,63.60
2023-05-19T03:55:03.722Z,63.30
2023-05-19T03:56:04.391Z,63.30
2023-05-19T03:58:03.615Z,66.40
2023-05-19T03:59:04.216Z,63.90
2023-05-19T04:00:12.042Z,63.30
2023-05-19T04:01:06.268Z,62.60
2023-05-19T04:02:07.204Z,65.20
2023-05-19T04:03:03.679Z,64.90
2023-05-19T04:04:06.920Z,64.40
2023-05-19T04:06:04.724Z,63.60
2023-05-19T04:07:10.350Z,64.60
2023-05-19T04:08:11.566Z,64.00
2023-05-19T04:11:06.963Z,63.30
2023-05-19T04:13:06.546Z,66.50
2023-05-19T04:15:03.665Z,65.10
2023-05-19T04:16:06.893Z,66.40
2023-05-19T04:17:03.532Z,63.00
2023-05-19T04:18:06.800Z,67.10
2023-05-19T04:20:04.032Z,67.10
2023-05-19T04:21:03.612Z,67.00
2023-05-19T04:22:04.160Z,65.90
2023-05-19T04:24:04.458Z,66.80
2023-05-19T04:25:10.429Z,63.30
2023-05-19T04:27:06.247Z,65.90
2023-05-19T04:28:10.419Z,64.50
2023-05-19T04:29:03.919Z,64.70
2023-05-19T04:31:04.295Z,67.30
2023-05-19T04:32:04.020Z,65.60
2023-05-19T04:33:06.321Z,66.90
2023-05-19T04:34:03.856Z,66.70
2023-05-19T04:35:06.337Z,65.70
2023-05-19T04:36:06.413Z,67.50
2023-05-19T04:37:06.421Z,68.00
2023-05-19T04:38:06.393Z,65.80
2023-05-19T04:40:04.473Z,65.70
2023-05-19T04:41:03.856Z,63.60
2023-05-19T04:42:03.447Z,64.70
2023-05-19T04:43:06.557Z,64.10
2023-05-19T04:45:04.213Z,63.90
2023-05-19T04:46:06.499Z,62.70
2023-05-19T04:47:10.611Z,63.90
2023-05-19T04:49:04.379Z,63.90
2023-05-19T04:51:03.697Z,62.30
2023-05-19T04:52:06.947Z,65.50
2023-05-19T04:54:11.732Z,63.50
2023-05-19T04:56:10.466Z,65.00
2023-05-19T04:58:10.439Z,63.70
2023-05-19T05:00:06.100Z,63.40
2023-05-19T05:01:06.213Z,63.10
2023-05-19T05:03:06.505Z,65.10
2023-05-19T05:04:06.795Z,63.10
2023-05-19T05:06:04.204Z,61.60
2023-05-19T05:07:03.713Z,63.10
2023-05-19T05:08:06.158Z,61.60
2023-05-19T05:09:06.221Z,62.80
2023-05-19T05:10:10.298Z,62.20
2023-05-19T05:12:03.475Z,62.60
2023-05-19T05:13:04.131Z,64.30
2023-05-19T05:14:03.734Z,64.40
2023-05-19T05:15:03.461Z,64.20
2023-05-19T05:16:04.121Z,62.30
2023-05-19T05:17:06.241Z,64.00
2023-05-19T05:19:04.088Z,64.30
2023-05-19T05:20:03.845Z,64.10
2023-05-19T05:21:03.549Z,63.90
2023-05-19T05:22:04.221Z,62.50
2023-05-19T05:23:03.780Z,64.20
2023-05-19T05:24:04.387Z,63.70
2023-05-19T05:25:06.707Z,61.30
2023-05-19T05:28:06.273Z,63.80
2023-05-19T05:30:04.377Z,63.00
2023-05-19T05:31:03.962Z,61.40
2023-05-19T05:33:04.430Z,62.30
2023-05-19T05:34:04.070Z,63.60
2023-05-19T05:35:06.268Z,63.30
2023-05-19T05:36:10.368Z,62.60
2023-05-19T05:37:03.788Z,62.50
2023-05-19T05:38:06.872Z,61.60
2023-05-19T05:40:06.520Z,63.60
2023-05-19T05:42:03.778Z,63.60
2023-05-19T05:43:06.977Z,62.10
2023-05-19T05:44:07.007Z,63.20
2023-05-19T05:45:06.048Z,61.10
2023-05-19T05:46:06.150Z,62.80
2023-05-19T05:47:03.672Z,61.50
2023-05-19T05:48:04.634Z,62.50
2023-05-19T05:49:04.341Z,60.50
2023-05-19T05:50:03.969Z,62.10
2023-05-19T05:51:06.302Z,61.70
2023-05-19T05:52:07.352Z,59.80
2023-05-19T05:54:03.752Z,62.10
2023-05-19T05:55:04.337Z,61.60
2023-05-19T05:56:04.409Z,60.10
2023-05-19T05:57:06.833Z,60.90
2023-05-19T05:58:10.498Z,61.40
2023-05-19T06:00:03.826Z,58.80
2023-05-19T06:01:10.045Z,59.30
2023-05-19T06:03:04.470Z,59.30
2023-05-19T06:04:04.070Z,59.10
2023-05-19T06:05:03.750Z,61.10
2023-05-19T06:06:06.928Z,61.00
2023-05-19T06:09:03.682Z,58.50
2023-05-19T06:10:04.304Z,60.30
2023-05-19T06:11:06.453Z,59.40
2023-05-19T06:13:06.237Z,59.30
2023-05-19T06:14:04.420Z,58.30
2023-05-19T06:15:04.147Z,59.80
2023-05-19T06:16:06.399Z,58.80
2023-05-19T06:18:10.363Z,58.20
2023-05-19T06:19:03.530Z,57.70
2023-05-19T06:20:04.198Z,58.30
2023-05-19T06:21:06.278Z,55.90
2023-05-19T06:22:06.255Z,57.40
2023-05-19T06:23:03.745Z,56.20
2023-05-19T06:24:06.943Z,54.90
2023-05-19T06:25:04.482Z,55.10
2023-05-19T06:26:06.550Z,53.70
2023-05-19T06:28:06.146Z,51.50
2023-05-19T06:29:06.193Z,52.10
2023-05-19T06:31:04.298Z,51.30
2023-05-19T06:32:03.940Z,51.40
2023-05-19T06:34:04.242Z,49.20
2023-05-19T06:35:10.577Z,47.20
2023-05-19T06:36:04.219Z,49.50
2023-05-19T06:37:03.877Z,48.40
2023-05-19T06:38:05.984Z,47.40
2023-05-19T06:40:04.135Z,47.10
2023-05-19T06:41:03.790Z,47.00
2023-05-19T06:42:04.407Z,46.30
2023-05-19T06:43:06.516Z,46.80
2023-05-19T06:45:06.231Z,45.20
2023-05-19T06:46:06.210Z,44.50
2023-05-19T06:48:10.710Z,44.50
2023-05-19T06:50:03.897Z,46.30
2023-05-19T06:51:10.115Z,46.30
2023-05-19T06:53:04.220Z,45.80
2023-05-19T06:54:03.744Z,44.70
2023-05-19T06:55:04.393Z,42.00
2023-05-19T06:56:04.161Z,42.90
2023-05-19T06:58:04.467Z,45.60
2023-05-19T06:59:06.676Z,45.40
2023-05-19T07:00:04.253Z,45.10
2023-05-19T07:01:06.479Z,43.90
2023-05-19T07:03:06.328Z,43.40
2023-05-19T07:05:06.192Z,42.20
2023-05-19T07:06:08.019Z,41.20
2023-05-19T07:08:10.077Z,40.60
2023-05-19T07:10:03.622Z,39.90
2023-05-19T07:11:11.862Z,40.40
2023-05-19T07:13:03.970Z,40.00
2023-05-19T07:14:06.204Z,40.40
2023-05-19T07:16:06.985Z,37.80
2023-05-19T07:18:06.910Z,37.90
2023-05-19T07:20:06.677Z,40.30
2023-05-19T07:21:06.837Z,39.40
2023-05-19T07:22:06.901Z,39.80
2023-05-19T07:24:03.996Z,39.50
2023-05-19T07:26:04.162Z,39.60
2023-05-19T07:27:03.786Z,39.80
2023-05-19T07:28:06.849Z,38.20
2023-05-19T07:29:10.587Z,40.10
2023-05-19T07:30:04.117Z,40.00
2023-05-19T07:31:03.788Z,40.10
2023-05-19T07:32:04.614Z,39.90
2023-05-19T07:33:04.299Z,39.90
2023-05-19T07:34:03.983Z,37.70
2023-05-19T07:36:04.397Z,38.20
2023-05-19T07:38:06.364Z,38.30
2023-05-19T07:40:03.561Z,38.60
2023-05-19T07:41:04.156Z,40.70
2023-05-19T07:42:03.827Z,40.10
2023-05-19T07:43:04.425Z,40.30
2023-05-19T07:44:06.527Z,40.30
2023-05-19T07:46:03.730Z,41.30
2023-05-19T07:47:10.549Z,40.60
2023-05-19T07:48:04.099Z,40.20
2023-05-19T07:49:03.704Z,40.20
2023-05-19T07:50:04.281Z,38.90
2023-05-19T07:51:04.284Z,37.90
2023-05-19T07:52:03.918Z,38.40
2023-05-19T07:53:06.217Z,38.00
2023-05-19T07:54:06.417Z,37.90
2023-05-19T07:55:03.842Z,37.50
2023-05-19T07:56:07.032Z,38.00
2023-05-19T07:57:03.543Z,37.00
2023-05-19T07:58:06.643Z,39.80
2023-05-19T07:59:06.647Z,39.80
2023-05-19T08:00:06.684Z,39.50
2023-05-19T08:02:06.521Z,39.70
2023-05-19T08:03:06.974Z,40.00
2023-05-19T08:05:06.358Z,39.20
2023-05-19T08:07:10.628Z,39.80
2023-05-19T08:11:07.000Z,40.20
2023-05-19T08:13:04.122Z,39.00
2023-05-19T08:14:10.323Z,40.60
2023-05-19T08:15:04.311Z,39.40
2023-05-19T08:16:04.045Z,39.60
2023-05-19T08:18:06.602Z,35.90
2023-05-19T08:19:04.206Z,35.50
2023-05-19T08:20:03.901Z,36.20
2023-05-19T08:21:10.108Z,35.90
2023-05-19T08:22:03.634Z,36.40
2023-05-19T08:23:04.231Z,36.70
2023-05-19T08:24:03.880Z,35.50
2023-05-19T08:25:03.497Z,37.30
2023-05-19T08:26:04.094Z,37.60
2023-05-19T08:27:06.204Z,35.60
2023-05-19T08:29:04.387Z,36.20
2023-05-19T08:30:06.592Z,38.20
2023-05-19T08:32:03.781Z,38.10
2023-05-19T08:34:04.321Z,37.90
2023-05-19T08:35:06.510Z,38.00
2023-05-19T08:37:10.179Z,37.00
2023-05-19T08:39:04.192Z,37.60
2023-05-19T08:40:03.785Z,37.00
2023-05-19T08:41:04.409Z,37.40
2023-05-19T08:42:04.046Z,37.30
2023-05-19T08:43:03.730Z,36.60
2023-05-19T08:44:04.374Z,34.00
2023-05-19T08:45:06.964Z,33.50
2023-05-19T08:47:04.332Z,33.50
2023-05-19T08:48:10.602Z,33.50
2023-05-19T08:50:04.158Z,34.20
2023-05-19T08:51:03.719Z,34.80
2023-05-19T08:52:04.295Z,34.30
2023-05-19T08:54:04.149Z,34.70
2023-05-19T08:55:03.713Z,35.20
2023-05-19T08:56:06.858Z,35.30
2023-05-19T08:57:06.831Z,34.90
2023-05-19T08:58:04.414Z,34.40
2023-05-19T08:59:04.048Z,34.90
2023-05-19T09:00:03.604Z,35.10
2023-05-19T09:01:06.836Z,34.30
2023-05-19T09:02:04.349Z,33.60
2023-05-19T09:03:23.811Z,35.00
2023-05-19T09:05:04.509Z,34.40
2023-05-19T09:06:04.283Z,35.60
2023-05-19T09:08:06.173Z,36.80
2023-05-19T09:10:04.159Z,36.70
2023-05-19T09:11:03.764Z,36.20
2023-05-19T09:12:10.506Z,36.60
2023-05-19T09:13:06.505Z,36.70
2023-05-19T09:14:06.607Z,36.00
2023-05-19T09:15:04.151Z,36.10
2023-05-19T09:16:06.471Z,35.60
2023-05-19T09:18:04.217Z,36.40
2023-05-19T09:19:03.937Z,35.50
2023-05-19T09:20:03.498Z,33.60
2023-05-19T09:21:06.587Z,34.20
2023-05-19T09:22:06.732Z,34.10
2023-05-19T09:23:04.211Z,34.00
2023-05-19T09:25:04.348Z,36.70
2023-05-19T09:26:03.940Z,36.10
2023-05-19T09:27:06.146Z,36.50
2023-05-19T09:28:03.793Z,36.20
2023-05-19T09:29:04.464Z,35.80
2023-05-19T09:30:04.008Z,35.90
2023-05-19T09:31:03.657Z,35.50
2023-05-19T09:32:04.392Z,33.60
2023-05-19T09:33:04.061Z,34.70
2023-05-19T09:34:03.619Z,34.70
2023-05-19T09:35:06.775Z,34.60
2023-05-19T09:36:06.960Z,35.20
2023-05-19T09:37:03.518Z,35.00
2023-05-19T09:38:06.760Z,35.40
2023-05-19T09:41:03.472Z,32.70
2023-05-19T09:42:06.662Z,35.40
2023-05-19T09:43:04.193Z,35.20
2023-05-19T09:44:10.399Z,34.80
2023-05-19T09:46:06.130Z,35.30
2023-05-19T09:47:03.611Z,35.50
2023-05-19T09:48:06.787Z,36.10
2023-05-19T09:49:04.286Z,35.20
2023-05-19T09:50:06.377Z,35.20
2023-05-19T09:51:03.933Z,35.60
2023-05-19T09:52:03.607Z,36.30
2023-05-19T09:53:04.253Z,36.20
2023-05-19T09:55:04.466Z,36.90
2023-05-19T09:57:03.705Z,35.70
2023-05-19T09:58:06.980Z,35.40
2023-05-19T09:59:04.480Z,35.20
2023-05-19T10:00:04.032Z,35.30
2023-05-19T10:01:03.688Z,35.70
2023-05-19T10:02:04.386Z,35.50
2023-05-19T10:03:03.981Z,35.90
2023-05-19T10:04:05.959Z,35.80
2023-05-19T10:06:04.466Z,35.50
2023-05-19T10:07:06.653Z,34.70
2023-05-19T10:08:04.151Z,34.20
2023-05-19T10:09:03.757Z,34.30
2023-05-19T10:10:04.312Z,34.20
2023-05-19T10:12:03.535Z,34.50
2023-05-19T10:13:10.698Z,35.00
2023-05-19T10:15:03.670Z,34.40
2023-05-19T10:16:04.617Z,34.20
2023-05-19T10:17:04.497Z,33.80
2023-05-19T10:18:04.497Z,34.10
2023-05-19T10:19:06.779Z,32.40
2023-05-19T10:20:04.289Z,32.10
2023-05-19T10:21:10.446Z,31.10
2023-05-19T10:22:03.853Z,31.00
2023-05-19T10:23:03.583Z,32.90
2023-05-19T10:24:04.233Z,33.20
2023-05-19T10:25:06.409Z,33.50
2023-05-19T10:26:06.377Z,33.80
2023-05-19T10:28:04.383Z,34.60
2023-05-19T10:29:11.627Z,33.40
2023-05-19T10:31:06.217Z,32.40
2023-05-19T10:32:03.813Z,32.20
2023-05-19T10:33:04.496Z,32.40
2023-05-19T10:35:03.631Z,32.00
2023-05-19T10:36:14.371Z,32.00
2023-05-19T10:37:03.935Z,32.50
2023-05-19T10:38:06.202Z,30.80
2023-05-19T10:40:04.404Z,30.10
2023-05-19T10:41:03.953Z,30.50
2023-05-19T10:43:06.627Z,30.50
2023-05-19T10:44:06.573Z,30.30
2023-05-19T10:46:03.992Z,31.20
2023-05-19T10:47:03.612Z,31.60
2023-05-19T10:48:10.834Z,31.30
2023-05-19T10:50:06.506Z,31.90
2023-05-19T10:52:03.541Z,33.00
2023-05-19T10:53:06.683Z,30.50
2023-05-19T10:54:04.168Z,30.10
2023-05-19T10:55:06.283Z,31.00
2023-05-19T10:57:04.286Z,31.70
2023-05-19T10:58:03.910Z,31.20
2023-05-19T10:59:08.506Z,31.20
2023-05-19T11:00:10.473Z,31.50
2023-05-19T11:02:06.341Z,29.20
2023-05-19T11:03:06.558Z,28.60
2023-05-19T11:04:06.922Z,29.10
2023-05-19T11:06:04.147Z,29.00
2023-05-19T11:07:06.307Z,28.80
2023-05-19T11:09:04.428Z,28.60
2023-05-19T11:11:06.239Z,29.40
2023-05-19T11:12:06.274Z,29.40
2023-05-19T11:13:03.768Z,29.00
2023-05-19T11:14:04.556Z,32.70
2023-05-19T11:15:04.277Z,32.30
2023-05-19T11:16:06.390Z,32.10
2023-05-19T11:18:03.887Z,32.90
2023-05-19T11:19:06.363Z,32.80
2023-05-19T11:21:06.181Z,34.10
2023-05-19T11:22:03.711Z,34.20
2023-05-19T11:23:04.419Z,32.80
2023-05-19T11:24:11.650Z,33.10
2023-05-19T11:26:06.268Z,32.00
2023-05-19T11:27:03.804Z,31.90
2023-05-19T11:28:04.370Z,31.50
2023-05-19T11:29:11.599Z,30.70
2023-05-19T11:31:03.805Z,30.60
2023-05-19T11:32:06.195Z,31.30
2023-05-19T11:33:06.473Z,31.70
2023-05-19T11:34:06.546Z,32.80
2023-05-19T11:35:06.604Z,32.60
2023-05-19T11:37:06.557Z,33.00
2023-05-19T11:38:06.621Z,34.40
2023-05-19T11:39:10.644Z,34.50
2023-05-19T11:40:04.143Z,34.30
2023-05-19T11:41:03.732Z,33.90
2023-05-19T11:42:04.465Z,34.20
2023-05-19T11:43:06.775Z,30.40
2023-05-19T11:44:06.778Z,30.40
2023-05-19T11:45:06.802Z,30.80
2023-05-19T11:46:06.859Z,31.80
2023-05-19T11:47:04.357Z,31.80
2023-05-19T11:48:04.159Z,31.10
2023-05-19T11:49:06.337Z,30.20
2023-05-19T11:51:03.920Z,30.40
2023-05-19T11:53:04.630Z,30.50
2023-05-19T11:54:04.128Z,30.60
2023-05-19T11:56:04.211Z,30.60
2023-05-19T11:57:04.163Z,30.80
2023-05-19T11:58:06.167Z,31.90
2023-05-19T11:59:03.816Z,31.00
2023-05-19T12:00:04.501Z,30.60
2023-05-19T12:02:03.813Z,29.80
2023-05-19T12:03:03.855Z,30.40
2023-05-19T12:04:06.248Z,30.40
2023-05-19T12:05:03.867Z,30.40
2023-05-19T12:06:03.538Z,30.40
2023-05-19T12:07:04.211Z,30.70
2023-05-19T12:08:03.803Z,30.80
2023-05-19T12:09:04.414Z,31.30
2023-05-19T12:10:04.043Z,30.50
2023-05-19T12:11:03.689Z,30.10
2023-05-19T12:12:04.316Z,30.60
2023-05-19T12:14:06.062Z,31.80
2023-05-19T12:15:06.097Z,30.50
2023-05-19T12:16:06.253Z,30.60
2023-05-19T12:17:03.793Z,30.70
2023-05-19T12:18:06.995Z,31.10
2023-05-19T12:20:04.198Z,31.40
2023-05-19T12:21:03.759Z,30.40
2023-05-19T12:22:12.439Z,31.80
2023-05-19T12:24:03.613Z,31.50
2023-05-19T12:25:04.295Z,31.40
2023-05-19T12:26:06.609Z,31.70
2023-05-19T12:27:06.672Z,31.90
2023-05-19T12:30:04.427Z,31.80
2023-05-19T12:31:04.152Z,31.80
2023-05-19T12:33:04.527Z,31.40
2023-05-19T12:34:04.202Z,31.70
2023-05-19T12:35:06.406Z,31.10
2023-05-19T12:36:06.454Z,30.90
2023-05-19T12:37:06.468Z,31.40
2023-05-19T12:38:04.018Z,31.40
2023-05-19T12:39:03.700Z,31.60
2023-05-19T12:40:11.990Z,31.30
2023-05-19T12:43:06.549Z,31.60
2023-05-19T12:44:06.554Z,32.30
2023-05-19T12:47:06.060Z,32.20
2023-05-19T12:48:08.714Z,32.50
2023-05-19T12:49:04.331Z,32.40
2023-05-19T12:50:03.946Z,32.10
2023-05-19T12:51:06.140Z,32.60
2023-05-19T12:52:12.151Z,32.50
2023-05-19T12:53:06.850Z,32.40
2023-05-19T12:54:04.359Z,32.00
2023-05-19T12:55:04.240Z,31.70
2023-05-19T12:57:03.761Z,31.80
2023-05-19T12:58:06.384Z,32.10
2023-05-19T13:00:03.708Z,31.90
2023-05-19T13:01:07.182Z,32.10
2023-05-19T13:02:06.711Z,32.30
2023-05-19T13:04:06.871Z,32.50
2023-05-19T13:05:03.505Z,32.90
2023-05-19T13:06:10.731Z,32.80
2023-05-19T13:08:06.453Z,33.10
2023-05-19T13:09:06.530Z,33.20
2023-05-19T13:10:06.614Z,32.70
2023-05-19T13:12:03.824Z,32.90
2023-05-19T13:13:04.395Z,32.80
2023-05-19T13:14:06.539Z,32.30
2023-05-19T13:16:03.554Z,32.70
2023-05-19T13:17:04.362Z,33.10
2023-05-19T13:18:04.025Z,32.80
2023-05-19T13:20:04.399Z,32.90
2023-05-19T13:21:04.113Z,33.60
2023-05-19T13:22:03.779Z,33.30
2023-05-19T13:23:04.388Z,33.50
2023-05-19T13:24:06.579Z,33.20
2023-05-19T13:26:03.840Z,32.60
2023-05-19T13:27:04.379Z,32.90
2023-05-19T13:30:04.274Z,32.50
2023-05-19T13:32:06.076Z,32.90
2023-05-19T13:34:04.330Z,32.90
2023-05-19T13:35:04.066Z,33.40
2023-05-19T13:36:06.283Z,32.90
2023-05-19T13:38:06.121Z,33.00
2023-05-19T13:40:04.291Z,33.40
2023-05-19T13:41:03.916Z,33.40
2023-05-19T13:42:08.672Z,33.70
2023-05-19T13:43:04.226Z,33.60
2023-05-19T13:45:04.376Z,32.70
2023-05-19T13:46:06.481Z,32.50
2023-05-19T13:47:06.569Z,32.40
2023-05-19T13:48:06.647Z,32.30
2023-05-19T13:51:06.030Z,32.40
2023-05-19T13:52:06.137Z,31.70
2023-05-19T13:54:04.274Z,31.90
2023-05-19T13:55:03.802Z,32.10
2023-05-19T13:56:04.345Z,32.20
2023-05-19T13:57:06.587Z,32.10
2023-05-19T13:59:03.721Z,32.10
2023-05-19T14:00:04.830Z,32.30
2023-05-19T14:02:04.391Z,32.60
2023-05-19T14:03:10.681Z,32.30
2023-05-19T14:04:12.336Z,32.60
2023-05-19T14:08:06.671Z,33.20
2023-05-19T14:09:06.740Z,33.20
2023-05-19T14:12:03.781Z,33.20
2023-05-19T14:13:34.359Z,33.90
2023-05-19T14:14:03.618Z,34.00
2023-05-19T14:15:04.244Z,33.80
2023-05-19T14:16:03.961Z,33.80
2023-05-19T14:17:06.186Z,36.20
2023-05-19T14:19:06.914Z,37.60
2023-05-19T14:20:03.541Z,36.50
2023-05-19T14:21:06.670Z,36.60
2023-05-19T14:22:06.706Z,36.10
2023-05-19T14:24:03.985Z,36.70
2023-05-19T14:25:03.671Z,38.90
2023-05-19T14:26:04.348Z,32.40
2023-05-19T14:27:06.539Z,37.90
2023-05-19T14:28:06.545Z,37.30
2023-05-19T14:31:04.438Z,35.70
2023-05-19T14:32:04.459Z,35.50
2023-05-19T14:33:14.345Z,34.00
2023-05-19T14:36:04.217Z,35.30
2023-05-19T14:37:03.973Z,36.00
2023-05-19T14:38:03.681Z,35.60
2023-05-19T14:39:04.344Z,35.00
2023-05-19T14:41:03.675Z,36.40
2023-05-19T14:42:06.910Z,34.10
2023-05-19T14:44:06.605Z,36.00
2023-05-19T14:45:06.736Z,34.10
2023-05-19T14:47:06.850Z,32.50
2023-05-19T14:49:04.032Z,30.80
2023-05-19T14:50:03.658Z,36.10
2023-05-19T14:51:11.992Z,33.70
2023-05-19T14:52:03.476Z,33.80
2023-05-19T14:53:04.216Z,34.30
2023-05-19T14:54:03.747Z,35.10
2023-05-19T14:55:04.612Z,34.80
2023-05-19T14:56:06.731Z,35.20
2023-05-19T14:57:04.253Z,35.90
2023-05-19T14:58:26.644Z,34.40
2023-05-19T15:00:04.046Z,28.60
2023-05-19T15:01:06.191Z,36.00
2023-05-19T15:03:06.793Z,36.20
2023-05-19T15:04:06.924Z,31.80
2023-05-19T15:05:07.024Z,38.00
2023-05-19T15:06:06.085Z,39.20
2023-05-19T15:07:11.218Z,36.00
2023-05-19T15:09:04.188Z,33.60
2023-05-19T15:10:03.876Z,34.30
2023-05-19T15:11:06.099Z,30.40
2023-05-19T15:12:03.571Z,29.40
2023-05-19T15:13:04.089Z,30.50
2023-05-19T15:15:04.381Z,41.20
2023-05-19T15:16:17.916Z,39.80
2023-05-19T15:17:04.001Z,40.30
2023-05-19T15:18:03.861Z,40.50
2023-05-19T15:19:06.193Z,39.40
2023-05-19T15:20:06.341Z,41.60
2023-05-19T15:22:06.181Z,41.20
2023-05-19T15:23:03.781Z,41.60
2023-05-19T15:24:04.438Z,40.50
2023-05-19T15:26:03.829Z,43.00
2023-05-19T15:27:03.460Z,40.40
2023-05-19T15:28:10.710Z,42.30
2023-05-19T15:31:03.812Z,42.80
2023-05-19T15:32:04.467Z,44.90
2023-05-19T15:33:04.061Z,39.70
2023-05-19T15:34:03.696Z,43.10
2023-05-19T15:35:04.259Z,43.60
2023-05-19T15:37:03.497Z,41.90
2023-05-19T15:38:04.081Z,43.60
2023-05-19T15:39:03.844Z,44.60
2023-05-19T15:41:04.285Z,44.70
2023-05-19T15:42:03.959Z,43.90
2023-05-19T15:44:06.852Z,44.70
2023-05-19T15:45:06.892Z,42.90
2023-05-19T15:46:07.170Z,40.30
2023-05-19T15:48:03.539Z,39.50
2023-05-19T15:49:04.130Z,38.80
2023-05-19T15:50:03.782Z,39.70
2023-05-19T15:51:11.038Z,40.60
2023-05-19T15:52:03.594Z,37.80
2023-05-19T15:53:04.369Z,37.50
2023-05-19T15:55:03.602Z,39.00
2023-05-19T15:56:05.243Z,40.60
2023-05-19T15:58:07.058Z,41.20
2023-05-19T16:00:04.052Z,39.00
2023-05-19T16:01:06.283Z,37.30
2023-05-19T16:02:06.379Z,43.10
2023-05-19T16:04:06.388Z,42.50
2023-05-19T16:05:06.576Z,43.10
2023-05-19T16:06:06.571Z,42.60
2023-05-19T16:08:03.607Z,35.80
2023-05-19T16:09:04.126Z,37.10
2023-05-19T16:10:03.849Z,38.70
2023-05-19T16:11:03.538Z,43.00
2023-05-19T16:12:04.305Z,43.00
2023-05-19T16:13:04.018Z,43.60
2023-05-19T16:14:03.657Z,44.00
2023-05-19T16:15:06.851Z,44.70
2023-05-19T16:17:04.040Z,43.90
2023-05-19T16:18:06.286Z,44.60
2023-05-19T16:19:03.846Z,44.30
2023-05-19T16:20:06.947Z,44.30
2023-05-19T16:22:04.023Z,45.80
2023-05-19T16:23:06.238Z,44.80
2023-05-19T16:24:03.714Z,44.80
2023-05-19T16:25:06.863Z,45.00
2023-05-19T16:27:06.397Z,45.30
2023-05-19T16:28:08.977Z,46.70
2023-05-19T16:30:03.688Z,47.00
2023-05-19T16:31:04.251Z,47.30
2023-05-19T16:32:06.523Z,44.70
2023-05-19T16:33:06.796Z,45.50
2023-05-19T16:34:10.912Z,45.10
2023-05-19T16:36:06.152Z,48.50
2023-05-19T16:37:08.691Z,49.50
2023-05-19T16:38:04.265Z,49.90
2023-05-19T16:39:03.940Z,48.40
2023-05-19T16:41:04.252Z,48.50
2023-05-19T16:42:03.848Z,48.50
2023-05-19T16:43:06.987Z,49.10